sensor_id;sensor_type;location;lat;lon;timestamp;temperature;humidity
75683;HTU21D;64295;44.772;39.872;2023-11-21T00:01:59;4.16;72.34
75683;HTU21D;64295;44.772;39.872;2023-11-21T00:04:25;4.16;72.41
75683;HTU21D;64295;44.772;39.872;2023-11-21T00:06:54;4.20;72.29
75683;HTU21D;64295;44.772;39.872;2023-11-21T00:09:20;4.22;72.25
75683;HTU21D;64295;44.772;39.872;2023-11-21T00:11:46;4.21;72.24
75683;HTU21D;64295;44.772;39.872;2023-11-21T00:14:12;4.19;72.30
75683;HTU21D;64295;44.772;39.872;2023-11-21T00:16:40;4.17;72.32
75683;HTU21D;64295;44.772;39.872;2023-11-21T00:19:06;4.13;72.37
75683;HTU21D;64295;44.772;39.872;2023-11-21T00:21:32;4.13;72.41
75683;HTU21D;64295;44.772;39.872;2023-11-21T00:23:58;4.12;72.44
75683;HTU21D;64295;44.772;39.872;2023-11-21T00:26:24;4.12;72.46
75683;HTU21D;64295;44.772;39.872;2023-11-21T00:29:00;4.13;72.42
75683;HTU21D;64295;44.772;39.872;2023-11-21T00:31:26;4.09;72.36
75683;HTU21D;64295;44.772;39.872;2023-11-21T00:33:51;4.09;72.36
75683;HTU21D;64295;44.772;39.872;2023-11-21T00:36:18;4.12;72.37
75683;HTU21D;64295;44.772;39.872;2023-11-21T00:38:44;4.12;72.35
75683;HTU21D;64295;44.772;39.872;2023-11-21T00:41:10;4.13;72.34
75683;HTU21D;64295;44.772;39.872;2023-11-21T00:43:36;4.13;72.33
75683;HTU21D;64295;44.772;39.872;2023-11-21T00:46:06;4.12;72.36
75683;HTU21D;64295;44.772;39.872;2023-11-21T00:48:35;4.13;72.35
75683;HTU21D;64295;44.772;39.872;2023-11-21T00:51:01;4.09;72.41
75683;HTU21D;64295;44.772;39.872;2023-11-21T00:53:26;4.12;72.41
75683;HTU21D;64295;44.772;39.872;2023-11-21T00:55:52;4.10;72.42
75683;HTU21D;64295;44.772;39.872;2023-11-21T00:58:28;4.12;72.45
75683;HTU21D;64295;44.772;39.872;2023-11-21T01:00:56;4.09;72.48
75683;HTU21D;64295;44.772;39.872;2023-11-21T01:03:22;4.08;72.48
75683;HTU21D;64295;44.772;39.872;2023-11-21T01:05:48;4.08;72.53
75683;HTU21D;64295;44.772;39.872;2023-11-21T01:08:15;4.09;72.48
75683;HTU21D;64295;44.772;39.872;2023-11-21T01:10:42;4.07;72.53
75683;HTU21D;64295;44.772;39.872;2023-11-21T01:13:08;4.05;72.54
75683;HTU21D;64295;44.772;39.872;2023-11-21T01:15:34;4.02;72.64
75683;HTU21D;64295;44.772;39.872;2023-11-21T01:18:01;4.00;72.70
75683;HTU21D;64295;44.772;39.872;2023-11-21T01:20:27;4.01;72.70
75683;HTU21D;64295;44.772;39.872;2023-11-21T01:22:53;4.02;72.67
75683;HTU21D;64295;44.772;39.872;2023-11-21T01:25:20;4.03;72.64
75683;HTU21D;64295;44.772;39.872;2023-11-21T01:27:48;4.04;72.63
75683;HTU21D;64295;44.772;39.872;2023-11-21T01:30:14;4.04;72.62
75683;HTU21D;64295;44.772;39.872;2023-11-21T01:32:43;4.04;72.62
75683;HTU21D;64295;44.772;39.872;2023-11-21T01:35:09;4.03;72.64
75683;HTU21D;64295;44.772;39.872;2023-11-21T01:37:39;4.03;72.68
75683;HTU21D;64295;44.772;39.872;2023-11-21T01:40:05;4.01;72.67
75683;HTU21D;64295;44.772;39.872;2023-11-21T01:42:43;3.98;72.80
75683;HTU21D;64295;44.772;39.872;2023-11-21T01:45:17;3.98;72.81
75683;HTU21D;64295;44.772;39.872;2023-11-21T01:47:44;3.95;72.81
75683;HTU21D;64295;44.772;39.872;2023-11-21T01:50:14;3.94;72.83
75683;HTU21D;64295;44.772;39.872;2023-11-21T01:52:45;3.98;72.82
75683;HTU21D;64295;44.772;39.872;2023-11-21T01:55:15;3.98;72.77
75683;HTU21D;64295;44.772;39.872;2023-11-21T01:57:43;3.99;72.80
75683;HTU21D;64295;44.772;39.872;2023-11-21T02:00:10;4.02;72.71
75683;HTU21D;64295;44.772;39.872;2023-11-21T02:02:43;4.01;72.68
75683;HTU21D;64295;44.772;39.872;2023-11-21T02:05:10;3.95;72.77
75683;HTU21D;64295;44.772;39.872;2023-11-21T02:07:39;3.90;72.93
75683;HTU21D;64295;44.772;39.872;2023-11-21T02:10:07;3.86;73.00
75683;HTU21D;64295;44.772;39.872;2023-11-21T02:12:33;3.85;73.06
75683;HTU21D;64295;44.772;39.872;2023-11-21T02:15:04;3.86;73.05
75683;HTU21D;64295;44.772;39.872;2023-11-21T02:17:37;3.87;73.02
75683;HTU21D;64295;44.772;39.872;2023-11-21T02:20:04;3.82;73.06
75683;HTU21D;64295;44.772;39.872;2023-11-21T02:22:36;3.86;73.05
75683;HTU21D;64295;44.772;39.872;2023-11-21T02:25:05;3.86;72.96
75683;HTU21D;64295;44.772;39.872;2023-11-21T02:27:31;3.86;72.94
75683;HTU21D;64295;44.772;39.872;2023-11-21T02:29:57;3.80;73.03
75683;HTU21D;64295;44.772;39.872;2023-11-21T02:32:24;3.77;73.15
75683;HTU21D;64295;44.772;39.872;2023-11-21T02:34:51;3.75;73.19
75683;HTU21D;64295;44.772;39.872;2023-11-21T02:37:17;3.74;73.21
75683;HTU21D;64295;44.772;39.872;2023-11-21T02:39:43;3.77;73.12
75683;HTU21D;64295;44.772;39.872;2023-11-21T02:42:09;3.75;73.17
75683;HTU21D;64295;44.772;39.872;2023-11-21T02:44:35;3.74;73.15
75683;HTU21D;64295;44.772;39.872;2023-11-21T02:47:01;3.74;73.15
75683;HTU21D;64295;44.772;39.872;2023-11-21T02:49:27;3.75;73.15
75683;HTU21D;64295;44.772;39.872;2023-11-21T02:51:56;3.73;73.21
75683;HTU21D;64295;44.772;39.872;2023-11-21T02:54:22;3.75;73.19
75683;HTU21D;64295;44.772;39.872;2023-11-21T02:56:48;3.74;73.15
75683;HTU21D;64295;44.772;39.872;2023-11-21T02:59:15;3.71;73.20
75683;HTU21D;64295;44.772;39.872;2023-11-21T03:01:42;3.68;73.28
75683;HTU21D;64295;44.772;39.872;2023-11-21T03:04:08;3.68;73.32
75683;HTU21D;64295;44.772;39.872;2023-11-21T03:06:35;3.72;73.36
75683;HTU21D;64295;44.772;39.872;2023-11-21T03:09:03;3.89;73.55
75683;HTU21D;64295;44.772;39.872;2023-11-21T03:11:29;4.10;72.69
75683;HTU21D;64295;44.772;39.872;2023-11-21T03:13:59;4.02;72.74
75683;HTU21D;64295;44.772;39.872;2023-11-21T03:16:25;3.98;72.95
75683;HTU21D;64295;44.772;39.872;2023-11-21T03:18:51;3.92;73.06
75683;HTU21D;64295;44.772;39.872;2023-11-21T03:21:18;3.80;73.29
75683;HTU21D;64295;44.772;39.872;2023-11-21T03:23:44;3.72;73.48
75683;HTU21D;64295;44.772;39.872;2023-11-21T03:26:13;3.69;73.60
75683;HTU21D;64295;44.772;39.872;2023-11-21T03:28:39;3.65;73.63
75683;HTU21D;64295;44.772;39.872;2023-11-21T03:31:05;3.63;73.67
75683;HTU21D;64295;44.772;39.872;2023-11-21T03:33:32;3.69;73.63
75683;HTU21D;64295;44.772;39.872;2023-11-21T03:35:58;3.85;73.42
75683;HTU21D;64295;44.772;39.872;2023-11-21T03:38:24;4.45;73.15
75683;HTU21D;64295;44.772;39.872;2023-11-21T03:40:50;4.79;71.96
75683;HTU21D;64295;44.772;39.872;2023-11-21T03:43:16;4.66;72.05
75683;HTU21D;64295;44.772;39.872;2023-11-21T03:45:42;4.49;72.51
75683;HTU21D;64295;44.772;39.872;2023-11-21T03:48:09;4.26;72.92
75683;HTU21D;64295;44.772;39.872;2023-11-21T03:50:37;4.07;73.44
75683;HTU21D;64295;44.772;39.872;2023-11-21T03:53:05;3.98;73.61
75683;HTU21D;64295;44.772;39.872;2023-11-21T03:55:32;3.93;73.71
75683;HTU21D;64295;44.772;39.872;2023-11-21T03:57:58;3.94;73.67
75683;HTU21D;64295;44.772;39.872;2023-11-21T04:00:28;3.92;73.61
75683;HTU21D;64295;44.772;39.872;2023-11-21T04:02:57;3.89;73.64
75683;HTU21D;64295;44.772;39.872;2023-11-21T04:05:26;3.85;73.62
75683;HTU21D;64295;44.772;39.872;2023-11-21T04:07:52;3.79;73.68
75683;HTU21D;64295;44.772;39.872;2023-11-21T04:10:18;3.80;73.67
75683;HTU21D;64295;44.772;39.872;2023-11-21T04:12:45;3.79;73.55
75683;HTU21D;64295;44.772;39.872;2023-11-21T04:15:11;3.78;73.69
75683;HTU21D;64295;44.772;39.872;2023-11-21T04:17:39;3.72;73.59
75683;HTU21D;64295;44.772;39.872;2023-11-21T04:20:06;3.69;73.74
75683;HTU21D;64295;44.772;39.872;2023-11-21T04:22:39;3.65;73.73
75683;HTU21D;64295;44.772;39.872;2023-11-21T04:25:15;3.56;73.81
75683;HTU21D;64295;44.772;39.872;2023-11-21T04:27:42;3.57;73.80
75683;HTU21D;64295;44.772;39.872;2023-11-21T04:30:11;3.55;73.87
75683;HTU21D;64295;44.772;39.872;2023-11-21T04:32:38;3.56;73.77
75683;HTU21D;64295;44.772;39.872;2023-11-21T04:35:05;3.73;73.58
75683;HTU21D;64295;44.772;39.872;2023-11-21T04:37:31;3.76;73.34
75683;HTU21D;64295;44.772;39.872;2023-11-21T04:39:57;3.69;73.46
75683;HTU21D;64295;44.772;39.872;2023-11-21T04:42:23;3.68;73.58
75683;HTU21D;64295;44.772;39.872;2023-11-21T04:44:49;3.91;73.52
75683;HTU21D;64295;44.772;39.872;2023-11-21T04:47:15;4.06;73.02
75683;HTU21D;64295;44.772;39.872;2023-11-21T04:49:45;4.00;73.30
75683;HTU21D;64295;44.772;39.872;2023-11-21T04:52:12;4.28;72.88
75683;HTU21D;64295;44.772;39.872;2023-11-21T04:54:38;4.20;72.84
75683;HTU21D;64295;44.772;39.872;2023-11-21T04:57:05;4.09;73.16
75683;HTU21D;64295;44.772;39.872;2023-11-21T04:59:34;4.03;73.35
75683;HTU21D;64295;44.772;39.872;2023-11-21T05:01:59;4.00;73.49
75683;HTU21D;64295;44.772;39.872;2023-11-21T05:04:26;3.94;73.62
75683;HTU21D;64295;44.772;39.872;2023-11-21T05:06:52;3.88;73.73
75683;HTU21D;64295;44.772;39.872;2023-11-21T05:09:18;3.88;73.79
75683;HTU21D;64295;44.772;39.872;2023-11-21T05:11:44;4.05;74.22
75683;HTU21D;64295;44.772;39.872;2023-11-21T05:14:10;4.27;73.17
75683;HTU21D;64295;44.772;39.872;2023-11-21T05:16:36;4.22;73.20
75683;HTU21D;64295;44.772;39.872;2023-11-21T05:19:03;4.10;73.40
75683;HTU21D;64295;44.772;39.872;2023-11-21T05:21:30;3.99;73.71
75683;HTU21D;64295;44.772;39.872;2023-11-21T05:23:59;3.94;74.04
75683;HTU21D;64295;44.772;39.872;2023-11-21T05:26:25;4.16;73.52
75683;HTU21D;64295;44.772;39.872;2023-11-21T05:28:51;4.07;73.63
75683;HTU21D;64295;44.772;39.872;2023-11-21T05:31:17;4.03;73.84
75683;HTU21D;64295;44.772;39.872;2023-11-21T05:33:43;4.01;73.83
75683;HTU21D;64295;44.772;39.872;2023-11-21T05:36:09;4.02;73.83
75683;HTU21D;64295;44.772;39.872;2023-11-21T05:38:36;3.98;73.89
75683;HTU21D;64295;44.772;39.872;2023-11-21T05:41:05;3.90;74.05
75683;HTU21D;64295;44.772;39.872;2023-11-21T05:43:31;3.85;74.21
75683;HTU21D;64295;44.772;39.872;2023-11-21T05:45:58;3.86;74.22
75683;HTU21D;64295;44.772;39.872;2023-11-21T05:48:24;3.91;74.13
75683;HTU21D;64295;44.772;39.872;2023-11-21T05:50:51;4.07;74.09
75683;HTU21D;64295;44.772;39.872;2023-11-21T05:53:17;4.18;73.80
75683;HTU21D;64295;44.772;39.872;2023-11-21T05:55:43;4.20;73.61
75683;HTU21D;64295;44.772;39.872;2023-11-21T05:58:08;4.16;73.72
75683;HTU21D;64295;44.772;39.872;2023-11-21T06:00:34;4.31;73.90
75683;HTU21D;64295;44.772;39.872;2023-11-21T06:03:01;4.36;73.42
75683;HTU21D;64295;44.772;39.872;2023-11-21T06:05:28;4.28;73.78
75683;HTU21D;64295;44.772;39.872;2023-11-21T06:07:55;4.34;73.72
75683;HTU21D;64295;44.772;39.872;2023-11-21T06:10:25;4.41;73.68
75683;HTU21D;64295;44.772;39.872;2023-11-21T06:12:51;4.31;73.67
75683;HTU21D;64295;44.772;39.872;2023-11-21T06:15:17;4.22;73.96
75683;HTU21D;64295;44.772;39.872;2023-11-21T06:17:47;4.21;74.05
75683;HTU21D;64295;44.772;39.872;2023-11-21T06:20:17;4.44;74.25
75683;HTU21D;64295;44.772;39.872;2023-11-21T06:22:46;4.58;73.39
75683;HTU21D;64295;44.772;39.872;2023-11-21T06:25:13;4.48;73.54
75683;HTU21D;64295;44.772;39.872;2023-11-21T06:27:41;4.43;73.81
75683;HTU21D;64295;44.772;39.872;2023-11-21T06:30:08;4.42;73.78
75683;HTU21D;64295;44.772;39.872;2023-11-21T06:32:38;4.34;73.90
75683;HTU21D;64295;44.772;39.872;2023-11-21T06:35:06;4.34;73.98
75683;HTU21D;64295;44.772;39.872;2023-11-21T06:37:32;4.32;73.97
75683;HTU21D;64295;44.772;39.872;2023-11-21T06:39:59;4.32;73.99
75683;HTU21D;64295;44.772;39.872;2023-11-21T06:42:25;4.33;73.99
75683;HTU21D;64295;44.772;39.872;2023-11-21T06:44:52;4.38;74.09
75683;HTU21D;64295;44.772;39.872;2023-11-21T06:47:20;4.45;73.80
75683;HTU21D;64295;44.772;39.872;2023-11-21T06:49:46;4.46;73.73
75683;HTU21D;64295;44.772;39.872;2023-11-21T06:52:15;4.48;73.97
75683;HTU21D;64295;44.772;39.872;2023-11-21T06:54:41;4.60;73.56
75683;HTU21D;64295;44.772;39.872;2023-11-21T06:57:07;4.56;73.62
75683;HTU21D;64295;44.772;39.872;2023-11-21T06:59:33;4.53;73.74
75683;HTU21D;64295;44.772;39.872;2023-11-21T07:01:59;4.50;73.87
75683;HTU21D;64295;44.772;39.872;2023-11-21T07:04:25;4.78;73.99
75683;HTU21D;64295;44.772;39.872;2023-11-21T07:06:53;4.91;73.07
75683;HTU21D;64295;44.772;39.872;2023-11-21T07:09:20;4.76;73.41
75683;HTU21D;64295;44.772;39.872;2023-11-21T07:11:54;4.62;73.78
75683;HTU21D;64295;44.772;39.872;2023-11-21T07:14:20;4.56;73.94
75683;HTU21D;64295;44.772;39.872;2023-11-21T07:16:47;4.50;74.04
75683;HTU21D;64295;44.772;39.872;2023-11-21T07:19:13;4.46;74.13
75683;HTU21D;64295;44.772;39.872;2023-11-21T07:21:40;4.45;74.15
75683;HTU21D;64295;44.772;39.872;2023-11-21T07:24:07;4.47;74.13
75683;HTU21D;64295;44.772;39.872;2023-11-21T07:26:34;4.46;74.12
75683;HTU21D;64295;44.772;39.872;2023-11-21T07:29:03;4.47;74.07
75683;HTU21D;64295;44.772;39.872;2023-11-21T07:31:29;4.47;74.11
75683;HTU21D;64295;44.772;39.872;2023-11-21T07:33:56;4.50;74.07
75683;HTU21D;64295;44.772;39.872;2023-11-21T07:36:25;4.51;74.10
75683;HTU21D;64295;44.772;39.872;2023-11-21T07:38:51;4.59;73.99
75683;HTU21D;64295;44.772;39.872;2023-11-21T07:41:18;4.62;73.90
75683;HTU21D;64295;44.772;39.872;2023-11-21T07:43:44;4.71;73.83
75683;HTU21D;64295;44.772;39.872;2023-11-21T07:46:11;4.74;73.75
75683;HTU21D;64295;44.772;39.872;2023-11-21T07:48:41;4.81;73.65
75683;HTU21D;64295;44.772;39.872;2023-11-21T07:51:08;4.87;73.56
75683;HTU21D;64295;44.772;39.872;2023-11-21T07:53:35;4.93;73.50
75683;HTU21D;64295;44.772;39.872;2023-11-21T07:56:05;4.96;73.44
75683;HTU21D;64295;44.772;39.872;2023-11-21T07:58:31;4.96;73.50
75683;HTU21D;64295;44.772;39.872;2023-11-21T08:01:00;5.01;73.46
75683;HTU21D;64295;44.772;39.872;2023-11-21T08:03:26;5.00;73.51
75683;HTU21D;64295;44.772;39.872;2023-11-21T08:05:52;5.01;73.50
75683;HTU21D;64295;44.772;39.872;2023-11-21T08:08:19;5.18;73.28
75683;HTU21D;64295;44.772;39.872;2023-11-21T08:10:45;5.04;73.38
75683;HTU21D;64295;44.772;39.872;2023-11-21T08:13:25;4.93;73.69
75683;HTU21D;64295;44.772;39.872;2023-11-21T08:15:55;4.86;73.84
75683;HTU21D;64295;44.772;39.872;2023-11-21T08:18:22;4.82;73.94
75683;HTU21D;64295;44.772;39.872;2023-11-21T08:20:48;4.81;73.96
75683;HTU21D;64295;44.772;39.872;2023-11-21T08:23:15;4.81;73.91
75683;HTU21D;64295;44.772;39.872;2023-11-21T08:25:45;4.77;73.99
75683;HTU21D;64295;44.772;39.872;2023-11-21T08:28:11;4.76;74.02
75683;HTU21D;64295;44.772;39.872;2023-11-21T08:30:37;4.77;73.99
75683;HTU21D;64295;44.772;39.872;2023-11-21T08:33:03;4.79;73.98
75683;HTU21D;64295;44.772;39.872;2023-11-21T08:35:30;4.83;73.86
75683;HTU21D;64295;44.772;39.872;2023-11-21T08:37:56;4.91;73.80
75683;HTU21D;64295;44.772;39.872;2023-11-21T08:40:22;4.97;73.64
75683;HTU21D;64295;44.772;39.872;2023-11-21T08:42:49;5.05;73.50
75683;HTU21D;64295;44.772;39.872;2023-11-21T08:45:17;5.07;73.44
75683;HTU21D;64295;44.772;39.872;2023-11-21T08:47:43;5.06;73.44
75683;HTU21D;64295;44.772;39.872;2023-11-21T08:50:12;5.05;73.54
75683;HTU21D;64295;44.772;39.872;2023-11-21T08:52:39;5.01;73.51
75683;HTU21D;64295;44.772;39.872;2023-11-21T08:55:06;4.91;73.70
75683;HTU21D;64295;44.772;39.872;2023-11-21T08:57:38;4.88;73.83
75683;HTU21D;64295;44.772;39.872;2023-11-21T09:00:07;4.89;73.74
75683;HTU21D;64295;44.772;39.872;2023-11-21T09:02:35;4.89;73.73
75683;HTU21D;64295;44.772;39.872;2023-11-21T09:05:02;4.90;73.78
75683;HTU21D;64295;44.772;39.872;2023-11-21T09:07:29;4.95;73.64
75683;HTU21D;64295;44.772;39.872;2023-11-21T09:09:55;5.01;73.57
75683;HTU21D;64295;44.772;39.872;2023-11-21T09:12:21;5.06;73.41
75683;HTU21D;64295;44.772;39.872;2023-11-21T09:14:47;5.02;73.44
75683;HTU21D;64295;44.772;39.872;2023-11-21T09:17:13;4.97;73.51
75683;HTU21D;64295;44.772;39.872;2023-11-21T09:19:40;5.00;73.57
75683;HTU21D;64295;44.772;39.872;2023-11-21T09:22:07;5.01;73.51
75683;HTU21D;64295;44.772;39.872;2023-11-21T09:24:33;5.01;73.47
75683;HTU21D;64295;44.772;39.872;2023-11-21T09:27:00;4.95;73.49
75683;HTU21D;64295;44.772;39.872;2023-11-21T09:29:27;4.94;73.61
75683;HTU21D;64295;44.772;39.872;2023-11-21T09:31:53;4.97;73.51
75683;HTU21D;64295;44.772;39.872;2023-11-21T09:34:21;5.02;73.43
75683;HTU21D;64295;44.772;39.872;2023-11-21T09:36:47;5.06;73.37
75683;HTU21D;64295;44.772;39.872;2023-11-21T09:39:14;5.08;73.27
75683;HTU21D;64295;44.772;39.872;2023-11-21T09:41:49;5.04;73.27
75683;HTU21D;64295;44.772;39.872;2023-11-21T09:44:18;4.98;73.35
75683;HTU21D;64295;44.772;39.872;2023-11-21T09:46:48;4.98;73.36
75683;HTU21D;64295;44.772;39.872;2023-11-21T09:49:16;5.03;73.38
75683;HTU21D;64295;44.772;39.872;2023-11-21T09:51:45;5.07;73.21
75683;HTU21D;64295;44.772;39.872;2023-11-21T09:54:15;5.17;73.10
75683;HTU21D;64295;44.772;39.872;2023-11-21T09:56:42;5.25;72.96
75683;HTU21D;64295;44.772;39.872;2023-11-21T09:59:11;5.28;72.87
75683;HTU21D;64295;44.772;39.872;2023-11-21T10:01:40;5.33;72.77
75683;HTU21D;64295;44.772;39.872;2023-11-21T10:04:08;5.32;72.80
75683;HTU21D;64295;44.772;39.872;2023-11-21T10:06:40;5.27;72.85
75683;HTU21D;64295;44.772;39.872;2023-11-21T10:09:12;5.25;72.81
75683;HTU21D;64295;44.772;39.872;2023-11-21T10:11:40;5.25;72.82
75683;HTU21D;64295;44.772;39.872;2023-11-21T10:14:10;5.22;72.80
75683;HTU21D;64295;44.772;39.872;2023-11-21T10:16:37;5.22;72.84
75683;HTU21D;64295;44.772;39.872;2023-11-21T10:19:05;5.21;72.85
75683;HTU21D;64295;44.772;39.872;2023-11-21T10:21:35;5.18;72.85
75683;HTU21D;64295;44.772;39.872;2023-11-21T10:24:02;5.20;72.87
75683;HTU21D;64295;44.772;39.872;2023-11-21T10:26:28;5.21;72.81
75683;HTU21D;64295;44.772;39.872;2023-11-21T10:29:01;5.20;72.83
75683;HTU21D;64295;44.772;39.872;2023-11-21T10:31:30;5.20;72.83
75683;HTU21D;64295;44.772;39.872;2023-11-21T10:34:15;5.23;72.79
75683;HTU21D;64295;44.772;39.872;2023-11-21T10:36:42;5.21;72.76
75683;HTU21D;64295;44.772;39.872;2023-11-21T10:39:08;5.22;72.72
75683;HTU21D;64295;44.772;39.872;2023-11-21T10:41:35;5.19;72.74
75683;HTU21D;64295;44.772;39.872;2023-11-21T10:44:02;5.16;72.83
75683;HTU21D;64295;44.772;39.872;2023-11-21T10:46:32;5.18;72.80
75683;HTU21D;64295;44.772;39.872;2023-11-21T10:48:58;5.19;72.82
75683;HTU21D;64295;44.772;39.872;2023-11-21T10:51:25;5.27;72.67
75683;HTU21D;64295;44.772;39.872;2023-11-21T10:53:54;5.30;72.64
75683;HTU21D;64295;44.772;39.872;2023-11-21T10:56:23;5.36;72.54
75683;HTU21D;64295;44.772;39.872;2023-11-21T10:58:49;5.34;72.53
75683;HTU21D;64295;44.772;39.872;2023-11-21T11:01:19;5.34;72.65
75683;HTU21D;64295;44.772;39.872;2023-11-21T11:03:50;5.32;72.59
75683;HTU21D;64295;44.772;39.872;2023-11-21T11:06:21;5.24;72.79
75683;HTU21D;64295;44.772;39.872;2023-11-21T11:08:48;5.20;72.86
75683;HTU21D;64295;44.772;39.872;2023-11-21T11:11:14;5.18;72.93
75683;HTU21D;64295;44.772;39.872;2023-11-21T11:13:43;5.15;72.91
75683;HTU21D;64295;44.772;39.872;2023-11-21T11:16:13;5.08;73.00
75683;HTU21D;64295;44.772;39.872;2023-11-21T11:18:43;5.05;73.08
75683;HTU21D;64295;44.772;39.872;2023-11-21T11:21:22;5.05;73.06
75683;HTU21D;64295;44.772;39.872;2023-11-21T11:24:05;5.06;73.07
75683;HTU21D;64295;44.772;39.872;2023-11-21T11:26:56;5.17;72.91
75683;HTU21D;64295;44.772;39.872;2023-11-21T11:29:33;5.21;72.67
75683;HTU21D;64295;44.772;39.872;2023-11-21T11:32:21;5.25;72.69
75683;HTU21D;64295;44.772;39.872;2023-11-21T11:37:46;5.38;72.42
75683;HTU21D;64295;44.772;39.872;2023-11-21T11:40:12;5.39;72.38
75683;HTU21D;64295;44.772;39.872;2023-11-21T11:42:38;5.38;72.43
75683;HTU21D;64295;44.772;39.872;2023-11-21T11:45:22;5.38;72.55
75683;HTU21D;64295;44.772;39.872;2023-11-21T11:47:57;5.32;72.55
75683;HTU21D;64295;44.772;39.872;2023-11-21T11:50:22;5.38;72.52
75683;HTU21D;64295;44.772;39.872;2023-11-21T11:52:51;5.50;72.57
75683;HTU21D;64295;44.772;39.872;2023-11-21T11:55:20;5.49;72.32
75683;HTU21D;64295;44.772;39.872;2023-11-21T11:57:53;5.43;72.54
75683;HTU21D;64295;44.772;39.872;2023-11-21T12:02:56;5.40;72.68
75683;HTU21D;64295;44.772;39.872;2023-11-21T12:05:26;5.43;72.66
75683;HTU21D;64295;44.772;39.872;2023-11-21T12:08:02;5.60;72.41
75683;HTU21D;64295;44.772;39.872;2023-11-21T12:10:30;5.64;72.31
75683;HTU21D;64295;44.772;39.872;2023-11-21T12:12:58;5.59;72.41
75683;HTU21D;64295;44.772;39.872;2023-11-21T12:15:25;5.56;72.54
75683;HTU21D;64295;44.772;39.872;2023-11-21T12:17:51;5.59;72.55
75683;HTU21D;64295;44.772;39.872;2023-11-21T12:20:22;5.59;72.52
75683;HTU21D;64295;44.772;39.872;2023-11-21T12:22:52;5.52;72.65
75683;HTU21D;64295;44.772;39.872;2023-11-21T12:25:23;5.50;72.69
75683;HTU21D;64295;44.772;39.872;2023-11-21T12:27:51;5.48;72.72
75683;HTU21D;64295;44.772;39.872;2023-11-21T12:30:19;5.41;72.83
75683;HTU21D;64295;44.772;39.872;2023-11-21T12:32:52;5.36;72.87
75683;HTU21D;64295;44.772;39.872;2023-11-21T12:35:23;5.32;72.93
75683;HTU21D;64295;44.772;39.872;2023-11-21T12:37:51;5.31;72.90
75683;HTU21D;64295;44.772;39.872;2023-11-21T12:40:18;5.33;72.81
75683;HTU21D;64295;44.772;39.872;2023-11-21T12:42:45;5.30;72.79
75683;HTU21D;64295;44.772;39.872;2023-11-21T12:50:12;5.26;72.68
75683;HTU21D;64295;44.772;39.872;2023-11-21T12:52:47;5.22;72.73
75683;HTU21D;64295;44.772;39.872;2023-11-21T12:55:22;5.21;72.75
75683;HTU21D;64295;44.772;39.872;2023-11-21T12:57:50;5.35;72.53
75683;HTU21D;64295;44.772;39.872;2023-11-21T13:00:49;5.31;72.52
75683;HTU21D;64295;44.772;39.872;2023-11-21T13:03:17;5.53;72.38
75683;HTU21D;64295;44.772;39.872;2023-11-21T13:05:47;5.69;71.99
75683;HTU21D;64295;44.772;39.872;2023-11-21T13:08:16;5.64;71.94
75683;HTU21D;64295;44.772;39.872;2023-11-21T13:10:46;5.49;72.22
75683;HTU21D;64295;44.772;39.872;2023-11-21T13:13:14;5.38;72.46
75683;HTU21D;64295;44.772;39.872;2023-11-21T13:18:22;5.45;72.43
75683;HTU21D;64295;44.772;39.872;2023-11-21T13:20:49;5.43;72.38
75683;HTU21D;64295;44.772;39.872;2023-11-21T13:23:16;5.41;72.36
75683;HTU21D;64295;44.772;39.872;2023-11-21T13:25:43;5.38;72.39
75683;HTU21D;64295;44.772;39.872;2023-11-21T13:28:11;5.36;72.42
75683;HTU21D;64295;44.772;39.872;2023-11-21T13:30:38;5.41;72.41
75683;HTU21D;64295;44.772;39.872;2023-11-21T13:33:07;5.41;72.21
75683;HTU21D;64295;44.772;39.872;2023-11-21T13:35:41;5.38;72.23
75683;HTU21D;64295;44.772;39.872;2023-11-21T13:38:12;5.38;72.28
75683;HTU21D;64295;44.772;39.872;2023-11-21T13:40:50;5.38;72.21
75683;HTU21D;64295;44.772;39.872;2023-11-21T13:43:20;5.38;72.22
75683;HTU21D;64295;44.772;39.872;2023-11-21T13:45:48;5.51;72.13
75683;HTU21D;64295;44.772;39.872;2023-11-21T13:48:24;5.56;71.76
75683;HTU21D;64295;44.772;39.872;2023-11-21T13:51:06;5.47;71.84
75683;HTU21D;64295;44.772;39.872;2023-11-21T13:53:47;5.36;72.05
75683;HTU21D;64295;44.772;39.872;2023-11-21T13:56:15;5.33;72.10
75683;HTU21D;64295;44.772;39.872;2023-11-21T13:58:52;5.26;72.15
75683;HTU21D;64295;44.772;39.872;2023-11-21T14:01:21;5.24;72.17
75683;HTU21D;64295;44.772;39.872;2023-11-21T14:03:50;5.23;72.15
75683;HTU21D;64295;44.772;39.872;2023-11-21T14:06:22;5.19;72.12
75683;HTU21D;64295;44.772;39.872;2023-11-21T14:08:56;5.13;72.13
75683;HTU21D;64295;44.772;39.872;2023-11-21T14:11:22;5.13;72.15
75683;HTU21D;64295;44.772;39.872;2023-11-21T14:13:49;5.13;72.09
75683;HTU21D;64295;44.772;39.872;2023-11-21T14:16:15;5.11;72.08
75683;HTU21D;64295;44.772;39.872;2023-11-21T14:18:43;5.09;72.09
75683;HTU21D;64295;44.772;39.872;2023-11-21T14:21:21;5.09;72.06
75683;HTU21D;64295;44.772;39.872;2023-11-21T14:23:47;5.06;72.06
75683;HTU21D;64295;44.772;39.872;2023-11-21T14:26:14;5.05;72.03
75683;HTU21D;64295;44.772;39.872;2023-11-21T14:28:41;5.05;71.96
75683;HTU21D;64295;44.772;39.872;2023-11-21T14:31:08;5.09;71.84
75683;HTU21D;64295;44.772;39.872;2023-11-21T14:33:39;5.09;71.80
75683;HTU21D;64295;44.772;39.872;2023-11-21T14:36:06;5.10;71.74
75683;HTU21D;64295;44.772;39.872;2023-11-21T14:38:38;5.12;71.61
75683;HTU21D;64295;44.772;39.872;2023-11-21T14:41:08;5.17;71.58
75683;HTU21D;64295;44.772;39.872;2023-11-21T14:43:37;5.22;71.44
75683;HTU21D;64295;44.772;39.872;2023-11-21T14:46:04;5.24;71.38
75683;HTU21D;64295;44.772;39.872;2023-11-21T14:48:36;5.26;71.45
75683;HTU21D;64295;44.772;39.872;2023-11-21T14:51:11;5.28;71.23
75683;HTU21D;64295;44.772;39.872;2023-11-21T14:53:56;5.36;71.23
75683;HTU21D;64295;44.772;39.872;2023-11-21T14:56:27;5.41;70.94
75683;HTU21D;64295;44.772;39.872;2023-11-21T14:58:57;5.33;71.04
75683;HTU21D;64295;44.772;39.872;2023-11-21T15:01:24;5.25;71.19
75683;HTU21D;64295;44.772;39.872;2023-11-21T15:04:10;5.38;71.26
75683;HTU21D;64295;44.772;39.872;2023-11-21T15:06:49;5.45;70.94
75683;HTU21D;64295;44.772;39.872;2023-11-21T15:09:18;5.37;71.00
75683;HTU21D;64295;44.772;39.872;2023-11-21T15:11:44;5.32;71.13
75683;HTU21D;64295;44.772;39.872;2023-11-21T15:14:10;5.23;71.23
75683;HTU21D;64295;44.772;39.872;2023-11-21T15:16:38;5.16;71.35
75683;HTU21D;64295;44.772;39.872;2023-11-21T15:19:06;5.16;71.34
75683;HTU21D;64295;44.772;39.872;2023-11-21T15:21:32;5.15;71.29
75683;HTU21D;64295;44.772;39.872;2023-11-21T15:23:59;5.15;71.29
75683;HTU21D;64295;44.772;39.872;2023-11-21T15:26:25;5.12;71.24
75683;HTU21D;64295;44.772;39.872;2023-11-21T15:28:52;5.09;71.26
75683;HTU21D;64295;44.772;39.872;2023-11-21T15:31:18;5.07;71.29
75683;HTU21D;64295;44.772;39.872;2023-11-21T15:33:52;5.00;71.30
75683;HTU21D;64295;44.772;39.872;2023-11-21T15:36:20;4.95;71.38